Dunlap, Kansas
Current Conditions -  °F | °C
As of 10:58 AM on Thursday 23 Oct 2014 (Local Time) from KFRI Reporting Station
Broken Clouds Broken Clouds  
Wind Chill: 65°   Ceiling: 3300
Heat Index: 65°   Visibility: 10mi
Dew Point: 63°   Wind: 7mph
Humidity: 94%   Direction: 230°SW
Pressure: 30.1"   Gusts: NA
Location:  38.6824°N, 96.5126°W
Report Text: KFRI 231558Z AUTO 23006KT 10SM SCT009 BKN033 18/17 A3010 RMK AO2 SLP187 T01840174
Loading
Personal Weather Stations






























Interactive Weather Map
Tropical Storm Tracking
New forecast layout! Learn more

10-Day Weather Forecast

Advertisements
Track Severe Weather on mobile